Time;durP1;ratioP1;P1;durP2;ratioP2;P2;SDS_P1;SDS_P2;PMS_P1;PMS_P2;Temp;Humidity;BMP_temperature;BMP_pressure;BME280_temperature;BME280_humidity;BME280_pressure;Samples;Min_cycle;Max_cycle;Signal;HPM_P1;HPM_P2
2022/03/17 01:10:21;;;;;;;32.65;10.93;;;;;;;8.45;100.00;95161.25;5566528;23;20421;-87
2022/03/17 01:12:47;;;;;;;21.27;12.10;;;;;;;8.38;100.00;95155.41;4941189;29;20373;-87
2022/03/17 01:15:15;;;;;;;21.52;11.07;;;;;;;8.21;100.00;95162.13;4909578;29;20039;-87
2022/03/17 01:17:40;;;;;;;24.58;11.20;;;;;;;8.29;100.00;95157.59;4924978;29;20036;-87
2022/03/17 01:20:07;;;;;;;22.23;10.98;;;;;;;8.38;100.00;95152.78;4924142;29;20094;-87
2022/03/17 01:22:34;;;;;;;22.17;11.30;;;;;;;8.65;100.00;95162.69;4923751;29;20039;-87
2022/03/17 01:24:59;;;;;;;28.17;12.95;;;;;;;8.37;100.00;95159.03;4917714;29;20074;-87
2022/03/17 01:27:25;;;;;;;28.92;12.05;;;;;;;8.17;100.00;95162.84;4909206;29;20032;-87
2022/03/17 01:29:51;;;;;;;23.05;10.85;;;;;;;8.14;100.00;95155.47;4908433;29;20035;-87
2022/03/17 01:32:17;;;;;;;22.75;10.00;;;;;;;8.23;100.00;95159.31;4924537;29;20074;-87
2022/03/17 01:34:43;;;;;;;20.08;10.73;;;;;;;8.29;100.00;95157.59;4924133;29;20036;-87
2022/03/17 01:37:08;;;;;;;25.05;10.80;;;;;;;8.27;100.00;95155.19;4939736;29;20028;-87
2022/03/17 01:39:34;;;;;;;19.60;10.93;;;;;;;8.27;100.00;95149.19;4924590;29;20035;-86
2022/03/17 01:42:03;;;;;;;20.58;9.48;;;;;;;8.20;100.00;95150.13;4908597;29;20032;-85
2022/03/17 01:44:28;;;;;;;22.85;10.13;;;;;;;8.12;100.00;95144.47;4924224;29;20028;-87
2022/03/17 01:49:39;;;;;;;24.58;11.57;;;;;;;8.26;100.00;95139.78;4940102;29;20106;-87
2022/03/17 01:52:05;;;;;;;22.77;12.52;;;;;;;8.25;100.00;95136.38;4940417;29;20035;-87
2022/03/17 01:54:31;;;;;;;24.17;11.80;;;;;;;8.26;100.00;95140.56;4924881;29;20078;-87
2022/03/17 01:56:58;;;;;;;24.30;11.70;;;;;;;8.31;100.00;95135.44;4940058;29;20122;-87
2022/03/17 01:59:27;;;;;;;23.15;12.77;;;;;;;8.47;100.00;95135.72;4940171;29;20032;-87
2022/03/17 02:01:54;;;;;;;25.17;12.68;;;;;;;8.47;100.00;95136.50;4940167;29;20038;-87
2022/03/17 02:04:20;;;;;;;29.00;12.00;;;;;;;8.55;100.00;95139.81;4940348;29;20039;-87
2022/03/17 02:06:45;;;;;;;26.38;12.10;;;;;;;8.55;100.00;95143.19;4924550;29;20028;-87
2022/03/17 02:09:11;;;;;;;25.67;11.68;;;;;;;8.46;100.00;95144.56;4939981;29;20086;-87
2022/03/17 02:14:22;;;;;;;24.10;11.55;;;;;;;8.39;100.00;95136.09;4926616;29;20067;-87
2022/03/17 02:16:49;;;;;;;26.83;12.90;;;;;;;8.32;100.00;95139.66;4923821;29;20076;-87
2022/03/17 02:19:15;;;;;;;24.02;11.48;;;;;;;8.39;100.00;95136.09;4923976;29;20036;-87
2022/03/17 02:21:41;;;;;;;21.48;12.05;;;;;;;8.49;100.00;95129.22;4939212;29;20031;-87
2022/03/17 02:26:50;;;;;;;28.10;11.63;;;;;;;8.55;100.00;95137.97;4939838;29;20045;-87
2022/03/17 02:29:16;;;;;;;23.42;12.48;;;;;;;8.42;100.00;95136.41;4939285;29;20365;-87
2022/03/17 02:31:41;;;;;;;27.33;11.70;;;;;;;8.28;100.00;95135.91;4923264;29;20040;-87
2022/03/17 02:34:07;;;;;;;27.05;10.98;;;;;;;8.23;100.00;95138.44;4938766;29;20035;-87
2022/03/17 02:36:32;;;;;;;21.95;11.82;;;;;;;8.27;100.00;95136.94;4939584;29;20040;-87
2022/03/17 02:38:57;;;;;;;22.05;10.63;;;;;;;8.40;100.00;95132.44;4939418;29;20122;-87
2022/03/17 02:41:23;;;;;;;23.30;10.70;;;;;;;8.54;100.00;95131.16;4923364;29;20032;-87
2022/03/17 02:43:55;;;;;;;25.55;12.23;;;;;;;8.62;100.00;95138.63;4940132;29;20035;-87
2022/03/17 02:46:21;;;;;;;20.55;10.90;;;;;;;8.50;100.00;95135.28;4939224;29;20031;-87
2022/03/17 02:48:47;;;;;;;19.98;10.23;;;;;;;8.46;100.00;95128.88;4923626;29;20400;-87
2022/03/17 02:51:12;;;;;;;23.83;12.10;;;;;;;8.44;100.00;95130.94;4940239;29;20032;-87
2022/03/17 02:53:38;;;;;;;30.13;11.90;;;;;;;8.35;100.00;95128.72;4923492;29;20353;-87
2022/03/17 02:56:03;;;;;;;25.30;10.80;;;;;;;8.17;100.00;95129.69;4940119;29;20038;-87
2022/03/17 02:58:31;;;;;;;27.27;12.13;;;;;;;8.09;100.00;95124.06;4939045;29;20031;-87
2022/03/17 03:00:57;;;;;;;19.75;11.18;;;;;;;8.15;100.00;95118.72;4938720;29;20035;-87
2022/03/17 03:03:23;;;;;;;22.52;11.52;;;;;;;8.10;100.00;95120.44;4939057;29;20484;-87
2022/03/17 03:05:48;;;;;;;29.42;12.18;;;;;;;7.98;100.00;95115.25;4939007;29;20027;-87
2022/03/17 03:08:15;;;;;;;22.63;11.15;;;;;;;7.99;100.00;95122.84;4939060;29;20030;-87
2022/03/17 03:10:41;;;;;;;24.33;11.55;;;;;;;8.17;100.00;95118.47;4922593;29;20031;-87
2022/03/17 03:13:06;;;;;;;25.05;10.77;;;;;;;8.24;100.00;95121.72;4922894;29;20046;-87
2022/03/17 03:15:32;;;;;;;20.27;11.20;;;;;;;8.31;100.00;95117.16;4938779;29;20035;-87
2022/03/17 03:17:57;;;;;;;26.70;12.50;;;;;;;8.12;100.00;95116.56;4923178;29;20130;-87
2022/03/17 03:20:23;;;;;;;24.10;12.30;;;;;;;8.15;100.00;95123.13;4922689;29;20028;-87
2022/03/17 03:22:49;;;;;;;24.30;13.27;;;;;;;8.00;100.00;95119.19;4938648;29;20032;-87
2022/03/17 03:25:14;;;;;;;27.50;14.50;;;;;;;7.87;100.00;95111.63;4922960;29;20457;-87
2022/03/17 03:27:40;;;;;;;28.55;15.18;;;;;;;7.62;100.00;95123.16;4923039;29;20090;-87
2022/03/17 03:30:12;;;;;;;32.10;15.43;;;;;;;7.69;100.00;95120.44;4922860;29;20063;-87
2022/03/17 03:32:42;;;;;;;30.92;16.02;;;;;;;7.64;100.00;95119.28;4939507;29;20039;-87
2022/03/17 03:38:00;;;;;;;70.72;30.42;;;;;;;7.44;100.00;95135.28;4938685;29;20094;-87
2022/03/17 03:40:26;;;;;;;78.93;36.28;;;;;;;7.20;100.00;95126.69;4923301;29;20031;-87
2022/03/17 03:42:51;;;;;;;106.18;47.47;;;;;;;7.22;100.00;95137.69;4907416;29;20032;-87
2022/03/17 03:45:17;;;;;;;104.82;48.42;;;;;;;7.22;100.00;95128.06;4906983;29;20032;-87
2022/03/17 03:47:42;;;;;;;117.20;49.53;;;;;;;7.37;100.00;95137.22;4938601;28;20389;-87
2022/03/17 03:50:09;;;;;;;110.68;50.03;;;;;;;7.42;100.00;95136.56;4922312;29;20074;-87
2022/03/17 03:52:34;;;;;;;131.93;58.00;;;;;;;7.09;100.00;95130.88;4922435;29;20398;-88
2022/03/17 03:54:59;;;;;;;130.75;58.17;;;;;;;6.99;100.00;95135.84;4912704;29;20184;-87
2022/03/17 03:57:25;;;;;;;142.95;61.25;;;;;;;6.71;100.00;95140.69;4922408;29;20158;-87
2022/03/17 03:59:50;;;;;;;126.30;58.78;;;;;;;7.14;100.00;95141.41;4918818;29;20028;-87
2022/03/17 04:02:16;;;;;;;132.00;60.05;;;;;;;7.06;100.00;95139.16;4919223;29;20028;-87
2022/03/17 04:04:42;;;;;;;142.95;63.63;;;;;;;7.24;100.00;95142.69;4919297;29;20099;-87
2022/03/17 04:07:12;;;;;;;138.98;65.05;;;;;;;7.24;100.00;95142.69;4903896;29;20028;-87
2022/03/17 04:09:40;;;;;;;165.20;70.28;;;;;;;6.90;100.00;95140.59;4903073;29;20059;-88
2022/03/17 04:12:12;;;;;;;171.85;73.95;;;;;;;6.78;100.00;95151.00;4921162;29;20126;-87
2022/03/17 04:14:38;;;;;;;151.00;69.75;;;;;;;7.04;100.00;95154.22;4907061;29;20040;-87
2022/03/17 04:17:04;;;;;;;169.50;73.60;;;;;;;6.80;100.00;95154.19;4922473;29;20405;-87
2022/03/17 04:19:30;;;;;;;165.52;72.90;;;;;;;6.73;100.00;95154.28;4907082;29;20028;-87
2022/03/17 04:21:56;;;;;;;164.50;75.68;;;;;;;6.63;100.00;95154.81;4922029;29;20452;-87
2022/03/17 04:24:22;;;;;;;163.60;75.47;;;;;;;6.47;100.00;95160.66;4938135;29;20039;-87
2022/03/17 04:26:48;;;;;;;161.40;72.32;;;;;;;6.95;100.00;95153.75;4937771;29;20463;-88
2022/03/17 04:29:14;;;;;;;149.45;70.40;;;;;;;7.13;100.00;95162.50;4922551;29;20080;-87
2022/03/17 04:31:42;;;;;;;153.90;70.85;;;;;;;6.87;100.00;95154.84;4922241;29;20027;-87
2022/03/17 04:34:08;;;;;;;150.07;66.45;;;;;;;7.05;100.00;95155.81;4922657;29;20123;-87
2022/03/17 04:36:34;;;;;;;159.82;69.30;;;;;;;6.72;100.00;95167.50;4939104;29;20118;-88
2022/03/17 04:39:02;;;;;;;148.45;68.28;;;;;;;6.78;100.00;95164.03;4922302;29;20036;-88
2022/03/17 04:41:28;;;;;;;148.73;67.60;;;;;;;6.84;100.00;95162.34;4922429;29;20035;-88
2022/03/17 04:43:54;;;;;;;145.05;69.30;;;;;;;7.11;100.00;95157.50;4922190;29;20028;-88
2022/03/17 04:46:20;;;;;;;150.30;67.13;;;;;;;7.08;100.00;95157.97;4922360;29;20028;-88
2022/03/17 04:48:45;;;;;;;148.02;64.35;;;;;;;6.73;100.00;95162.09;4906880;29;20038;-87
2022/03/17 04:51:11;;;;;;;142.65;62.50;;;;;;;6.99;100.00;95161.91;4906326;29;20032;-88
2022/03/17 04:53:36;;;;;;;142.75;62.22;;;;;;;7.08;100.00;95155.34;4906805;29;20036;-88
2022/03/17 04:56:08;;;;;;;160.05;73.22;;;;;;;6.65;100.00;95165.00;4906726;29;20027;-88
2022/03/17 04:58:36;;;;;;;151.80;67.85;;;;;;;6.61;100.00;95167.28;4924221;29;20031;-88
2022/03/17 05:01:02;;;;;;;175.85;77.95;;;;;;;6.56;100.00;95163.75;4940788;29;20039;-88
2022/03/17 05:03:28;;;;;;;158.07;68.45;;;;;;;6.56;100.00;95166.34;4925522;29;20066;-87
2022/03/17 05:05:54;;;;;;;150.38;68.68;;;;;;;6.58;100.00;95165.09;4925685;29;20027;-88
2022/03/17 05:08:19;;;;;;;159.15;72.68;;;;;;;6.50;100.00;95163.59;4913132;29;20032;-88
2022/03/17 05:10:47;;;;;;;155.38;71.28;;;;;;;6.63;100.00;95162.63;4905880;29;20460;-87
2022/03/17 05:13:13;;;;;;;172.63;75.25;;;;;;;6.43;100.00;95169.91;4921992;29;20426;-88
2022/03/17 05:15:39;;;;;;;178.98;77.18;;;;;;;6.29;100.00;95167.47;4921740;29;20036;-88
2022/03/17 05:18:06;;;;;;;184.18;76.95;;;;;;;6.28;100.00;95172.91;4906243;29;20028;-88
2022/03/17 05:20:33;;;;;;;181.55;76.93;;;;;;;6.27;100.00;95187.72;4921129;29;20043;-88
2022/03/17 05:22:59;;;;;;;169.90;74.43;;;;;;;6.20;100.00;95187.03;4922035;29;20056;-88
2022/03/17 05:25:24;;;;;;;172.88;77.07;;;;;;;6.21;100.00;95191.22;4921900;29;20064;-87
2022/03/17 05:27:50;;;;;;;163.60;70.95;;;;;;;6.19;100.00;95193.25;4921833;29;20453;-87
2022/03/17 05:30:17;;;;;;;154.88;68.65;;;;;;;6.40;100.00;95191.19;4906038;29;20075;-87
2022/03/17 05:32:44;;;;;;;163.23;72.53;;;;;;;6.35;100.00;95200.44;4921613;29;20059;-88
2022/03/17 05:35:10;;;;;;;163.07;71.53;;;;;;;6.54;100.00;95194.41;4906078;29;20076;-88
2022/03/17 05:37:36;;;;;;;151.52;68.45;;;;;;;6.93;100.00;95198.28;4906251;29;20063;-88
2022/03/17 05:40:13;;;;;;;169.23;75.47;;;;;;;6.55;100.00;95188.97;4890306;29;20449;-88
2022/03/17 05:42:40;;;;;;;170.02;74.32;;;;;;;6.53;100.00;95195.41;4906967;29;20024;-88
2022/03/17 05:45:06;;;;;;;164.60;72.78;;;;;;;6.85;100.00;95198.56;4905704;29;20024;-88
2022/03/17 05:47:39;;;;;;;156.68;70.43;;;;;;;6.79;100.00;95199.47;4921534;29;20314;-87
2022/03/17 05:50:07;;;;;;;162.02;70.80;;;;;;;6.53;100.00;95204.03;4920715;29;20024;-90
2022/03/17 05:52:34;;;;;;;176.32;78.10;;;;;;;6.37;100.00;95205.41;4905449;29;20469;-90
2022/03/17 05:54:59;;;;;;;179.70;79.63;;;;;;;6.25;100.00;95204.59;4921494;29;20064;-88
2022/03/17 05:57:25;;;;;;;181.75;76.75;;;;;;;6.36;100.00;95209.03;4905661;29;20446;-88
2022/03/17 05:59:50;;;;;;;156.63;69.70;;;;;;;6.67;100.00;95214.28;4924092;29;20158;-88
2022/03/17 06:02:16;;;;;;;152.30;68.95;;;;;;;6.83;100.00;95212.84;4925285;29;20028;-87
2022/03/17 06:04:41;;;;;;;144.43;67.38;;;;;;;7.11;100.00;95212.22;4917700;29;20028;-88
2022/03/17 06:07:07;;;;;;;152.85;69.45;;;;;;;7.19;100.00;95218.94;4920886;29;20043;-88
2022/03/17 06:09:33;;;;;;;176.15;75.53;;;;;;;6.82;100.00;95216.47;4904225;29;20034;-88
2022/03/17 06:11:58;;;;;;;166.70;73.93;;;;;;;6.91;100.00;95217.72;4920434;29;20028;-88
2022/03/17 06:14:26;;;;;;;175.70;79.47;;;;;;;6.80;100.00;95219.28;4905210;29;20126;-88
2022/03/17 06:16:52;;;;;;;167.07;77.50;;;;;;;6.76;100.00;95218.16;4920782;29;20064;-87
2022/03/17 06:19:18;;;;;;;160.73;73.28;;;;;;;7.24;100.00;95226.09;4889730;29;20066;-88
2022/03/17 06:21:43;;;;;;;167.80;77.93;;;;;;;7.25;100.00;95223.25;4889251;29;20059;-87
2022/03/17 06:24:09;;;;;;;169.60;76.63;;;;;;;7.16;100.00;95227.97;4921306;29;20060;-88
2022/03/17 06:26:37;;;;;;;168.77;76.53;;;;;;;6.85;100.00;95231.66;4920513;29;20337;-87
2022/03/17 06:29:02;;;;;;;172.73;76.50;;;;;;;7.14;100.00;95230.03;4905194;29;20059;-88
2022/03/17 06:31:27;;;;;;;170.95;77.28;;;;;;;7.36;100.00;95229.50;4889324;29;20068;-88
2022/03/17 06:33:53;;;;;;;162.93;73.78;;;;;;;7.60;100.00;95226.91;4904659;29;20066;-88
2022/03/17 06:36:18;;;;;;;154.93;72.82;;;;;;;7.42;100.00;95225.97;4904803;29;20330;-88
2022/03/17 06:38:54;;;;;;;166.63;73.32;;;;;;;6.83;100.00;95231.09;4904723;29;20114;-87
2022/03/17 06:41:20;;;;;;;152.43;68.18;;;;;;;7.35;100.00;95227.91;4921123;29;20039;-87
2022/03/17 06:43:45;;;;;;;149.07;68.03;;;;;;;7.33;100.00;95238.56;4904909;29;20128;-88
2022/03/17 06:46:11;;;;;;;168.70;74.10;;;;;;;7.26;100.00;95239.69;4921503;29;20028;-88
2022/03/17 06:48:36;;;;;;;184.35;79.40;;;;;;;6.99;100.00;95230.47;4919649;29;20034;-87
2022/03/17 06:51:02;;;;;;;176.15;79.40;;;;;;;6.69;100.00;95227.84;4923136;29;20118;-88
2022/03/17 06:53:27;;;;;;;169.82;77.18;;;;;;;6.57;100.00;95233.81;4923310;29;20043;-88
2022/03/17 06:55:53;;;;;;;166.88;78.90;;;;;;;6.79;100.00;95238.53;4939024;29;20046;-88
2022/03/17 06:58:18;;;;;;;169.88;73.53;;;;;;;7.32;100.00;95238.81;4940846;29;20405;-87
2022/03/17 07:00:43;;;;;;;161.75;74.55;;;;;;;7.38;100.00;95237.09;4940027;29;20035;-87
2022/03/17 07:03:09;;;;;;;153.43;72.88;;;;;;;7.20;100.00;95239.56;4939280;29;20035;-87
2022/03/17 07:05:34;;;;;;;172.20;79.28;;;;;;;7.07;100.00;95239.75;4938962;29;20044;-87
2022/03/17 07:08:00;;;;;;;170.80;77.00;;;;;;;7.13;100.00;95245.91;4938944;29;20043;-88
2022/03/17 07:10:27;;;;;;;170.90;76.60;;;;;;;7.30;100.00;95246.03;4922696;29;20082;-87
2022/03/17 07:12:53;;;;;;;163.77;71.97;;;;;;;7.05;100.00;95255.59;4938888;29;20031;-87
2022/03/17 07:15:19;;;;;;;157.70;73.20;;;;;;;7.11;100.00;95248.72;4939167;29;20389;-87
2022/03/17 07:17:44;;;;;;;151.25;68.28;;;;;;;7.27;100.00;95259.50;4938757;29;20047;-87
2022/03/17 07:20:15;;;;;;;146.88;69.32;;;;;;;7.29;100.00;95254.88;4922632;29;20035;-88
2022/03/17 07:22:42;;;;;;;148.85;71.50;;;;;;;7.85;100.00;95257.19;4938657;29;20516;-87
2022/03/17 07:25:09;;;;;;;152.02;72.00;;;;;;;7.95;100.00;95256.59;4922825;29;20042;-87
2022/03/17 07:27:43;;;;;;;151.02;73.30;;;;;;;7.87;100.00;95261.16;4938897;29;20039;-87
2022/03/17 07:30:10;;;;;;;156.70;75.53;;;;;;;8.00;100.00;95261.94;4922439;29;20035;-87
2022/03/17 07:32:36;;;;;;;153.07;73.00;;;;;;;8.31;100.00;95259.97;4939782;29;20062;-87
2022/03/17 07:35:01;;;;;;;143.63;70.68;;;;;;;8.49;100.00;95274.69;4938537;29;20063;-87
2022/03/17 07:37:27;;;;;;;143.00;66.82;;;;;;;8.57;100.00;95266.50;4939618;29;20040;-87
2022/03/17 07:39:52;;;;;;;148.05;68.32;;;;;;;8.62;100.00;95279.69;4938564;29;20035;-87
2022/03/17 07:42:18;;;;;;;144.63;67.75;;;;;;;8.51;100.00;95280.50;4923136;29;20075;-87
2022/03/17 07:44:43;;;;;;;146.13;69.25;;;;;;;8.56;100.00;95278.00;4923060;29;20118;-87
2022/03/17 07:47:09;;;;;;;141.55;67.20;;;;;;;8.71;100.00;95284.53;4922802;29;20044;-88
2022/03/17 07:49:38;;;;;;;126.22;59.60;;;;;;;7.98;100.00;95277.81;4922637;29;20093;-88
2022/03/17 07:52:04;;;;;;;84.82;39.67;;;;;;;8.18;100.00;95276.69;4922423;29;20039;-87
2022/03/17 07:54:30;;;;;;;64.90;29.38;;;;;;;8.14;100.00;95280.75;4922475;29;20042;-87
2022/03/17 07:56:55;;;;;;;65.93;31.20;;;;;;;8.33;100.00;95279.63;4938749;29;20040;-87
2022/03/17 07:59:21;;;;;;;135.68;61.17;;;;;;;8.57;100.00;95286.63;4938497;29;20043;-87
2022/03/17 08:01:47;;;;;;;84.05;41.05;;;;;;;8.75;100.00;95286.47;4921947;29;20031;-87
2022/03/17 08:04:12;;;;;;;68.88;33.72;;;;;;;8.47;100.00;95284.59;4938743;29;20429;-88
2022/03/17 08:06:38;;;;;;;81.07;37.42;;;;;;;8.59;100.00;95292.41;4922418;29;20036;-88
2022/03/17 08:09:05;;;;;;;79.90;35.15;;;;;;;8.63;100.00;95290.91;4922400;29;20043;-87
2022/03/17 08:11:31;;;;;;;69.95;33.72;;;;;;;8.50;100.00;95294.59;4938231;29;20040;-87
2022/03/17 08:13:56;;;;;;;62.38;30.80;;;;;;;8.13;100.00;95293.03;4938403;29;20433;-88
2022/03/17 08:16:22;;;;;;;78.70;35.10;;;;;;;8.00;100.00;95295.88;4938626;29;20038;-87
2022/03/17 08:18:49;;;;;;;68.57;33.22;;;;;;;7.88;100.00;95295.84;4938309;29;20062;-88
2022/03/17 08:21:15;;;;;;;75.57;34.33;;;;;;;7.86;100.00;95296.09;4937770;29;20042;-87
2022/03/17 08:23:41;;;;;;;64.00;29.80;;;;;;;8.44;100.00;95305.91;4939291;29;20035;-88
2022/03/17 08:26:09;;;;;;;57.20;27.45;;;;;;;8.83;100.00;95302.81;4938623;29;20417;-87
2022/03/17 08:28:34;;;;;;;59.33;28.17;;;;;;;8.41;100.00;95309.81;4922208;29;20039;-88
2022/03/17 08:31:00;;;;;;;48.13;23.67;;;;;;;8.85;100.00;95304.13;4937678;29;20036;-88
2022/03/17 08:33:25;;;;;;;44.08;22.20;;;;;;;8.72;100.00;95301.78;4924443;29;20032;-87
2022/03/17 08:35:52;;;;;;;44.17;19.70;;;;;;;8.57;100.00;95303.09;4941736;29;20043;-87
2022/03/17 08:38:18;;;;;;;40.42;20.85;;;;;;;8.80;100.00;95305.84;4926132;29;20471;-88
2022/03/17 08:40:43;;;;;;;34.33;17.52;;;;;;;9.28;100.00;95307.28;4925552;29;20051;-87
2022/03/17 08:43:09;;;;;;;40.45;19.70;;;;;;;9.00;100.00;95303.66;4925936;29;20032;-88
2022/03/17 08:51:27;;;;;;;44.17;20.00;;;;;;;9.23;100.00;95304.53;4926897;29;20034;-88
2022/03/17 08:53:53;;;;;;;44.55;20.13;;;;;;;9.31;100.00;95303.38;4909739;29;20038;-88
2022/03/17 08:56:18;;;;;;;38.83;19.05;;;;;;;9.91;100.00;95303.81;4941451;29;20130;-87
2022/03/17 08:58:44;;;;;;;37.13;18.42;;;;;;;9.62;100.00;95304.69;4941263;29;20087;-88
2022/03/17 09:01:11;;;;;;;40.97;19.42;;;;;;;9.67;100.00;95301.34;4925022;29;20032;-88
2022/03/17 09:03:36;;;;;;;39.70;18.58;;;;;;;9.58;100.00;95300.16;4941418;29;20083;-88
2022/03/17 09:06:02;;;;;;;35.45;18.88;;;;;;;9.71;100.00;95301.69;4940943;29;20429;-88
2022/03/17 09:08:28;;;;;;;32.70;17.38;;;;;;;10.45;100.00;95300.63;4924934;29;20043;-87
2022/03/17 09:10:58;;;;;;;35.80;18.73;;;;;;;9.97;100.00;95296.81;4925044;29;20123;-88
2022/03/17 09:13:25;;;;;;;42.05;21.88;;;;;;;10.47;100.00;95303.00;4942153;29;20031;-88
2022/03/17 09:15:52;;;;;;;41.63;20.70;;;;;;;10.87;100.00;95301.13;4941413;29;20071;-88
2022/03/17 09:18:18;;;;;;;39.60;19.60;;;;;;;10.59;100.00;95300.28;4925114;29;20031;-88
2022/03/17 09:20:43;;;;;;;37.95;19.73;;;;;;;11.15;100.00;95300.09;4925251;29;20039;-87
2022/03/17 09:23:09;;;;;;;37.88;18.55;;;;;;;11.56;100.00;95296.25;4940798;29;20054;-88
2022/03/17 09:25:35;;;;;;;34.25;17.45;;;;;;;11.48;100.00;95304.56;4940819;29;20050;-88
2022/03/17 09:28:01;;;;;;;33.35;17.42;;;;;;;11.04;100.00;95306.25;4925002;29;20101;-88
2022/03/17 09:30:27;;;;;;;43.40;19.15;;;;;;;11.19;100.00;95300.41;4924503;29;20031;-88
2022/03/17 09:32:54;;;;;;;44.03;19.20;;;;;;;11.49;100.00;95303.56;4924886;29;20314;-88
2022/03/17 09:35:20;;;;;;;36.33;19.10;;;;;;;11.97;100.00;95301.81;4925132;29;20031;-88
2022/03/17 09:37:49;;;;;;;37.75;18.77;;;;;;;12.09;100.00;95301.66;4940674;29;20086;-88
2022/03/17 09:40:14;;;;;;;38.72;17.58;;;;;;;11.60;100.00;95308.63;4924531;29;20142;-88
2022/03/17 09:42:40;;;;;;;38.30;18.40;;;;;;;11.84;100.00;95305.69;4940709;29;20130;-88
2022/03/17 09:45:07;;;;;;;37.30;18.00;;;;;;;12.77;100.00;95302.78;4924621;29;20121;-88
2022/03/17 09:47:35;;;;;;;34.78;18.35;;;;;;;13.20;100.00;95302.63;4924871;29;20050;-88
2022/03/17 09:50:02;;;;;;;34.78;18.88;;;;;;;12.65;100.00;95302.22;4939867;29;20032;-88
2022/03/17 09:52:28;;;;;;;38.10;19.10;;;;;;;12.23;100.00;95294.13;4940535;29;20035;-88
2022/03/17 09:54:54;;;;;;;36.25;19.52;;;;;;;12.03;100.00;95305.28;4941432;29;20063;-88
2022/03/17 09:57:20;;;;;;;35.28;18.80;;;;;;;13.02;100.00;95298.63;4940219;29;20035;-88
2022/03/17 09:59:53;;;;;;;36.95;18.30;;;;;;;13.36;100.00;95303.44;4908676;29;20095;-88
2022/03/17 10:02:19;;;;;;;32.63;17.92;;;;;;;13.32;100.00;95296.34;4940467;29;20063;-88
2022/03/17 10:04:46;;;;;;;30.20;17.23;;;;;;;13.21;100.00;95292.91;4940042;29;20437;-88
2022/03/17 10:07:12;;;;;;;33.60;17.25;;;;;;;12.95;100.00;95290.97;4924426;29;20027;-88
2022/03/17 10:09:38;;;;;;;30.13;16.92;;;;;;;13.04;100.00;95286.00;4939595;29;20036;-88
2022/03/17 10:12:06;;;;;;;23.73;11.95;;;;;;;12.10;100.00;95284.06;4924322;29;20058;-87
2022/03/17 10:14:52;;;;;;;32.35;15.57;;;;;;;12.35;100.00;95290.50;4923798;29;20035;-87
2022/03/17 10:17:37;;;;;;;38.92;17.25;;;;;;;12.06;100.00;95293.50;4924117;29;20078;-88
2022/03/17 10:20:13;;;;;;;29.25;15.88;;;;;;;13.55;100.00;95295.84;4940604;29;20508;-88
2022/03/17 10:22:48;;;;;;;25.30;13.70;;;;;;;12.78;100.00;95295.66;4940675;29;20094;-88
2022/03/17 10:25:18;;;;;;;23.48;12.88;;;;;;;12.98;100.00;95292.31;4939900;29;20036;-88
2022/03/17 10:27:49;;;;;;;24.02;12.93;;;;;;;13.24;100.00;95297.63;4940187;29;20416;-87
2022/03/17 10:30:21;;;;;;;32.80;13.25;;;;;;;12.90;100.00;95300.69;4924153;29;20118;-88
2022/03/17 10:32:57;;;;;;;25.35;12.07;;;;;;;13.05;100.00;95297.34;4939694;29;20027;-87
2022/03/17 10:35:36;;;;;;;25.23;13.52;;;;;;;12.55;100.00;95303.75;4923782;29;20033;-88
2022/03/17 10:38:27;;;;;;;29.73;12.23;;;;;;;13.28;100.00;95290.78;4939901;29;20050;-88
2022/03/17 10:41:02;;;;;;;28.15;15.15;;;;;;;13.10;100.00;95298.13;4939226;29;20039;-88
2022/03/17 10:43:29;;;;;;;29.08;15.35;;;;;;;13.51;100.00;95296.66;4939399;29;20045;-88
2022/03/17 10:46:11;;;;;;;30.85;17.27;;;;;;;12.51;100.00;95288.72;4939069;29;20344;-87
2022/03/17 10:48:58;;;;;;;34.33;16.88;;;;;;;13.66;100.00;95296.66;4924012;29;20027;-87
2022/03/17 10:51:43;;;;;;;35.33;18.38;;;;;;;14.04;100.00;95295.56;4938613;29;20053;-88
2022/03/17 10:54:19;;;;;;;42.13;23.17;;;;;;;13.83;99.81;95290.31;4923569;29;20451;-88
2022/03/17 10:57:02;;;;;;;46.10;22.90;;;;;;;13.37;100.00;95289.22;4938724;29;20028;-88
2022/03/17 10:59:44;;;;;;;43.95;23.20;;;;;;;13.25;100.00;95293.94;4923260;29;20059;-88
2022/03/17 11:02:17;;;;;;;44.80;24.05;;;;;;;13.24;100.00;95298.41;4939473;29;20083;-87
2022/03/17 11:04:44;;;;;;;46.00;25.02;;;;;;;12.47;100.00;95290.28;4923298;29;20023;-88
2022/03/17 11:07:16;;;;;;;48.47;25.48;;;;;;;11.95;100.00;95303.09;4923166;29;20373;-88
2022/03/17 11:09:43;;;;;;;48.13;26.75;;;;;;;11.81;100.00;95293.03;4907591;29;20493;-88
2022/03/17 11:12:10;;;;;;;66.15;30.90;;;;;;;11.60;100.00;95295.50;4939059;29;20429;-88
2022/03/17 11:14:42;;;;;;;56.65;30.70;;;;;;;11.64;100.00;95295.81;4938838;29;20059;-88
2022/03/17 11:17:10;;;;;;;61.10;30.50;;;;;;;11.65;100.00;95291.34;4923188;29;20035;-88
2022/03/17 11:19:36;;;;;;;56.42;30.15;;;;;;;11.19;100.00;95295.16;4939006;29;20059;-87
2022/03/17 11:22:08;;;;;;;60.83;30.83;;;;;;;11.84;100.00;95297.00;4938885;29;20032;-87
2022/03/17 11:24:34;;;;;;;56.22;25.77;;;;;;;11.47;100.00;95293.31;4938311;29;20031;-87
2022/03/17 11:27:11;;;;;;;57.88;27.00;;;;;;;11.67;100.00;95291.88;4922878;29;20028;-88
2022/03/17 11:29:47;;;;;;;70.22;31.67;;;;;;;12.27;100.00;95289.16;4922748;29;20027;-88
2022/03/17 11:32:29;;;;;;;74.60;35.60;;;;;;;11.98;100.00;95290.25;4938822;29;20027;-88
2022/03/17 11:35:10;;;;;;;75.93;39.97;;;;;;;11.40;100.00;95285.63;4906843;29;20035;-88
2022/03/17 11:37:36;;;;;;;76.35;39.88;;;;;;;11.49;100.00;95293.06;4938386;29;20042;-87
2022/03/17 11:40:02;;;;;;;73.03;37.67;;;;;;;11.46;100.00;95286.47;4922436;29;20036;-89
2022/03/17 11:42:39;;;;;;;86.22;44.25;;;;;;;11.56;100.00;95289.19;4939291;29;20039;-88
2022/03/17 11:45:31;;;;;;;78.05;38.83;;;;;;;11.35;100.00;95282.16;4923125;29;20126;-88
2022/03/17 11:48:02;;;;;;;78.80;39.88;;;;;;;11.43;100.00;95279.09;4939410;29;20047;-88
2022/03/17 11:50:36;;;;;;;81.55;41.20;;;;;;;11.78;100.00;95277.00;4922680;29;20091;-89
2022/03/17 11:53:11;;;;;;;86.50;41.17;;;;;;;12.51;100.00;95276.38;4922462;29;20031;-89
2022/03/17 11:55:48;;;;;;;84.68;44.33;;;;;;;12.76;100.00;95272.25;4922457;29;20043;-88
2022/03/17 11:58:23;;;;;;;92.80;47.03;;;;;;;12.77;100.00;95275.69;4922358;29;20028;-88
2022/03/17 12:01:11;;;;;;;86.15;44.70;;;;;;;12.64;100.00;95277.75;4922250;29;20034;-88
2022/03/17 12:03:56;;;;;;;85.07;45.30;;;;;;;12.50;100.00;95277.44;4922994;29;20054;-88
2022/03/17 12:06:26;;;;;;;76.07;40.63;;;;;;;12.54;100.00;95272.44;4922989;29;20042;-88
2022/03/17 12:09:01;;;;;;;77.22;42.20;;;;;;;12.13;100.00;95278.28;4926437;29;20036;-87
2022/03/17 12:11:30;;;;;;;87.15;42.38;;;;;;;12.16;100.00;95265.44;4935109;29;20353;-88
2022/03/17 12:14:14;;;;;;;83.88;42.60;;;;;;;11.65;100.00;95273.75;4942016;29;20425;-88
2022/03/17 12:16:41;;;;;;;84.38;45.42;;;;;;;11.81;100.00;95273.88;4942648;29;20042;-88
2022/03/17 12:19:07;;;;;;;87.97;46.90;;;;;;;11.85;100.00;95267.06;4925112;29;20035;-88
2022/03/17 12:21:57;;;;;;;85.97;45.53;;;;;;;12.10;100.00;95261.19;4960707;29;20031;-88
2022/03/17 12:24:47;;;;;;;86.85;44.80;;;;;;;12.27;100.00;95262.88;4945045;29;20035;-88
2022/03/17 12:27:19;;;;;;;83.90;43.15;;;;;;;13.01;100.00;95261.03;4945036;29;20428;-88
2022/03/17 12:30:06;;;;;;;93.57;46.47;;;;;;;12.48;100.00;95262.97;4961455;29;20031;-88
2022/03/17 12:32:37;;;;;;;89.75;48.47;;;;;;;12.90;100.00;95264.69;4961242;29;20047;-88
2022/03/17 12:35:09;;;;;;;97.15;52.00;;;;;;;12.32;100.00;95254.22;4929715;29;20062;-88
2022/03/17 12:37:36;;;;;;;95.53;50.80;;;;;;;12.25;100.00;95267.59;4944944;29;20035;-88
2022/03/17 12:40:04;;;;;;;94.03;51.83;;;;;;;12.00;100.00;95264.53;4944043;29;20034;-88
2022/03/17 12:42:32;;;;;;;99.88;52.63;;;;;;;11.66;100.00;95258.78;4944595;29;20034;-88